sensor_id;sensor_type;location;lat;lon;timestamp;pressure;altitude;pressure_sealevel;temperature;humidity
19594;BME280;9944;48.240;16.478;2022-09-13T00:04:01;99708.19;;;16.31;71.50
19594;BME280;9944;48.240;16.478;2022-09-13T00:08:05;99693.25;;;16.25;71.61
19594;BME280;9944;48.240;16.478;2022-09-13T00:12:09;99696.00;;;16.21;71.54
19594;BME280;9944;48.240;16.478;2022-09-13T00:16:13;99690.75;;;16.17;72.10
19594;BME280;9944;48.240;16.478;2022-09-13T00:20:19;99685.53;;;16.14;71.84
19594;BME280;9944;48.240;16.478;2022-09-13T00:24:22;99685.56;;;16.11;71.93
19594;BME280;9944;48.240;16.478;2022-09-13T00:28:25;99693.63;;;16.07;71.71
19594;BME280;9944;48.240;16.478;2022-09-13T00:32:28;99691.06;;;16.02;71.87
19594;BME280;9944;48.240;16.478;2022-09-13T00:36:32;99680.56;;;15.96;71.95
19594;BME280;9944;48.240;16.478;2022-09-13T00:40:36;99688.59;;;15.91;71.93
19594;BME280;9944;48.240;16.478;2022-09-13T00:44:54;99681.59;;;15.89;71.93
19594;BME280;9944;48.240;16.478;2022-09-13T00:49:02;99680.75;;;15.87;72.10
19594;BME280;9944;48.240;16.478;2022-09-13T00:53:32;99672.00;;;15.81;72.13
19594;BME280;9944;48.240;16.478;2022-09-13T00:57:38;99683.56;;;15.77;72.21
19594;BME280;9944;48.240;16.478;2022-09-13T01:01:47;99670.31;;;15.74;72.20
19594;BME280;9944;48.240;16.478;2022-09-13T01:05:54;99672.19;;;15.69;72.26
19594;BME280;9944;48.240;16.478;2022-09-13T01:10:02;99671.34;;;15.67;72.10
19594;BME280;9944;48.240;16.478;2022-09-13T01:14:09;99670.53;;;15.62;71.77
19594;BME280;9944;48.240;16.478;2022-09-13T01:18:12;99673.31;;;15.56;72.03
19594;BME280;9944;48.240;16.478;2022-09-13T01:22:47;99670.72;;;15.53;72.32
19594;BME280;9944;48.240;16.478;2022-09-13T01:31:36;99663.88;;;15.39;72.67
19594;BME280;9944;48.240;16.478;2022-09-13T01:36:00;99664.81;;;15.37;72.73
19594;BME280;9944;48.240;16.478;2022-09-13T01:40:16;99658.69;;;15.33;72.90
19594;BME280;9944;48.240;16.478;2022-09-13T01:44:44;99655.19;;;15.31;72.85
19594;BME280;9944;48.240;16.478;2022-09-13T01:48:55;99652.56;;;15.31;72.85
19594;BME280;9944;48.240;16.478;2022-09-13T01:53:03;99649.09;;;15.28;72.75
19594;BME280;9944;48.240;16.478;2022-09-13T01:57:12;99639.38;;;15.25;72.55
19594;BME280;9944;48.240;16.478;2022-09-13T02:01:21;99640.34;;;15.21;72.65
19594;BME280;9944;48.240;16.478;2022-09-13T02:05:31;99633.34;;;15.17;72.32
19594;BME280;9944;48.240;16.478;2022-09-13T02:09:38;99630.75;;;15.14;72.44
19594;BME280;9944;48.240;16.478;2022-09-13T02:13:47;99614.06;;;15.09;72.39
19594;BME280;9944;48.240;16.478;2022-09-13T02:17:59;99608.84;;;15.04;72.53
19594;BME280;9944;48.240;16.478;2022-09-13T02:22:10;99607.16;;;15.00;72.61
19594;BME280;9944;48.240;16.478;2022-09-13T02:26:17;99603.63;;;14.98;72.52
19594;BME280;9944;48.240;16.478;2022-09-13T02:30:22;99601.88;;;14.97;72.68
19594;BME280;9944;48.240;16.478;2022-09-13T02:34:30;99596.63;;;14.94;72.75
19594;BME280;9944;48.240;16.478;2022-09-13T02:38:40;99583.44;;;14.91;73.07
19594;BME280;9944;48.240;16.478;2022-09-13T02:42:50;99583.44;;;14.89;73.13
19594;BME280;9944;48.240;16.478;2022-09-13T02:47:05;99584.38;;;14.88;73.63
19594;BME280;9944;48.240;16.478;2022-09-13T02:51:20;99583.56;;;14.84;73.52
19594;BME280;9944;48.240;16.478;2022-09-13T02:55:31;99587.16;;;14.79;73.52
19594;BME280;9944;48.240;16.478;2022-09-13T02:59:39;99590.75;;;14.76;73.93
19594;BME280;9944;48.240;16.478;2022-09-13T03:03:42;99597.03;;;14.69;73.49
19594;BME280;9944;48.240;16.478;2022-09-13T03:07:46;99589.19;;;14.61;73.22
19594;BME280;9944;48.240;16.478;2022-09-13T03:12:08;99597.19;;;14.57;73.17
19594;BME280;9944;48.240;16.478;2022-09-13T03:16:42;99596.38;;;14.52;73.21
19594;BME280;9944;48.240;16.478;2022-09-13T03:20:54;99592.84;;;14.51;73.21
19594;BME280;9944;48.240;16.478;2022-09-13T03:25:06;99586.72;;;14.47;73.55
19594;BME280;9944;48.240;16.478;2022-09-13T03:29:35;99585.00;;;14.46;73.55
19594;BME280;9944;48.240;16.478;2022-09-13T03:33:46;99575.31;;;14.42;73.56
19594;BME280;9944;48.240;16.478;2022-09-13T03:37:56;99575.41;;;14.38;73.87
19594;BME280;9944;48.240;16.478;2022-09-13T03:42:05;99571.91;;;14.36;74.20
19594;BME280;9944;48.240;16.478;2022-09-13T03:46:16;99564.91;;;14.31;74.49
19594;BME280;9944;48.240;16.478;2022-09-13T03:50:22;99572.00;;;14.29;74.83
19594;BME280;9944;48.240;16.478;2022-09-13T03:54:29;99578.16;;;14.28;74.74
19594;BME280;9944;48.240;16.478;2022-09-13T03:58:33;99576.47;;;14.26;74.94
19594;BME280;9944;48.240;16.478;2022-09-13T04:02:37;99573.00;;;14.21;74.75
19594;BME280;9944;48.240;16.478;2022-09-13T04:06:40;99581.06;;;14.13;75.08
19594;BME280;9944;48.240;16.478;2022-09-13T04:10:43;99573.13;;;14.13;75.22
19594;BME280;9944;48.240;16.478;2022-09-13T04:14:46;99585.47;;;14.11;75.26
19594;BME280;9944;48.240;16.478;2022-09-13T04:18:51;99583.75;;;14.10;75.23
19594;BME280;9944;48.240;16.478;2022-09-13T04:22:55;99585.50;;;14.09;75.09
19594;BME280;9944;48.240;16.478;2022-09-13T04:26:59;99582.91;;;14.08;75.37
19594;BME280;9944;48.240;16.478;2022-09-13T04:31:03;99585.56;;;14.05;75.15
19594;BME280;9944;48.240;16.478;2022-09-13T04:35:08;99598.81;;;14.05;75.04
19594;BME280;9944;48.240;16.478;2022-09-13T04:39:11;99588.22;;;14.05;74.85
19594;BME280;9944;48.240;16.478;2022-09-13T04:43:15;99590.88;;;14.05;75.00
19594;BME280;9944;48.240;16.478;2022-09-13T04:47:18;99586.47;;;14.04;74.89
19594;BME280;9944;48.240;16.478;2022-09-13T04:51:22;99575.00;;;14.03;74.70
19594;BME280;9944;48.240;16.478;2022-09-13T04:55:25;99567.09;;;14.02;74.66
19594;BME280;9944;48.240;16.478;2022-09-13T04:59:28;99576.84;;;13.98;74.80
19594;BME280;9944;48.240;16.478;2022-09-13T05:03:33;99592.69;;;14.00;74.83
19594;BME280;9944;48.240;16.478;2022-09-13T05:07:37;99592.69;;;14.00;75.21
19594;BME280;9944;48.240;16.478;2022-09-13T05:11:41;99603.25;;;14.01;75.34
19594;BME280;9944;48.240;16.478;2022-09-13T05:15:45;99596.22;;;14.00;75.06
19594;BME280;9944;48.240;16.478;2022-09-13T05:19:48;99596.22;;;13.99;75.28
19594;BME280;9944;48.240;16.478;2022-09-13T05:23:54;99593.56;;;13.99;75.22
19594;BME280;9944;48.240;16.478;2022-09-13T05:27:57;99592.69;;;14.00;75.32
19594;BME280;9944;48.240;16.478;2022-09-13T05:32:01;99592.72;;;13.97;75.49
19594;BME280;9944;48.240;16.478;2022-09-13T05:36:05;99594.50;;;13.96;75.36
19594;BME280;9944;48.240;16.478;2022-09-13T05:40:10;99600.66;;;13.97;75.31
19594;BME280;9944;48.240;16.478;2022-09-13T05:44:13;99592.75;;;13.95;75.47
19594;BME280;9944;48.240;16.478;2022-09-13T05:48:16;99613.88;;;13.97;75.70
19594;BME280;9944;48.240;16.478;2022-09-13T05:52:19;99605.06;;;13.99;75.87
19594;BME280;9944;48.240;16.478;2022-09-13T05:56:25;99610.28;;;14.02;75.83
19594;BME280;9944;48.240;16.478;2022-09-13T06:00:29;99605.81;;;14.06;75.88
19594;BME280;9944;48.240;16.478;2022-09-13T06:04:34;99600.47;;;14.10;76.08
19594;BME280;9944;48.240;16.478;2022-09-13T06:08:37;99596.00;;;14.17;76.23
19594;BME280;9944;48.240;16.478;2022-09-13T06:12:42;99598.53;;;14.23;76.25
19594;BME280;9944;48.240;16.478;2022-09-13T06:16:45;99596.69;;;14.28;76.40
19594;BME280;9944;48.240;16.478;2022-09-13T06:20:48;99601.91;;;14.35;76.58
19594;BME280;9944;48.240;16.478;2022-09-13T06:24:51;99593.88;;;14.41;76.63
19594;BME280;9944;48.240;16.478;2022-09-13T06:28:56;99584.06;;;14.49;76.80
19594;BME280;9944;48.240;16.478;2022-09-13T06:33:00;99587.47;;;14.57;76.91
19594;BME280;9944;48.240;16.478;2022-09-13T06:37:03;99589.13;;;14.66;76.78
19594;BME280;9944;48.240;16.478;2022-09-13T06:41:08;99581.97;;;14.73;76.70
19594;BME280;9944;48.240;16.478;2022-09-13T06:45:13;99577.44;;;14.81;76.82
19594;BME280;9944;48.240;16.478;2022-09-13T06:49:16;99590.50;;;14.90;76.80
19594;BME280;9944;48.240;16.478;2022-09-13T06:53:19;99590.31;;;15.02;77.11
19594;BME280;9944;48.240;16.478;2022-09-13T06:57:22;99594.53;;;15.14;77.23
19594;BME280;9944;48.240;16.478;2022-09-13T07:01:28;99592.56;;;15.24;77.38
19594;BME280;9944;48.240;16.478;2022-09-13T07:05:31;99596.78;;;15.36;76.95
19594;BME280;9944;48.240;16.478;2022-09-13T07:09:34;99586.03;;;15.43;76.38
19594;BME280;9944;48.240;16.478;2022-09-13T07:13:38;99586.72;;;15.53;76.36
19594;BME280;9944;48.240;16.478;2022-09-13T07:17:42;99569.66;;;15.68;76.33
19594;BME280;9944;48.240;16.478;2022-09-13T07:21:46;99564.00;;;15.87;75.93
19594;BME280;9944;48.240;16.478;2022-09-13T07:25:53;99567.16;;;16.04;75.50
19594;BME280;9944;48.240;16.478;2022-09-13T07:29:56;99562.25;;;16.25;74.73
19594;BME280;9944;48.240;16.478;2022-09-13T07:34:02;99582.22;;;16.43;73.77
19594;BME280;9944;48.240;16.478;2022-09-13T07:38:05;99581.69;;;16.66;73.58
19594;BME280;9944;48.240;16.478;2022-09-13T07:42:08;99574.16;;;16.85;72.73
19594;BME280;9944;48.240;16.478;2022-09-13T07:46:13;99575.59;;;17.00;70.96
19594;BME280;9944;48.240;16.478;2022-09-13T07:50:18;99577.00;;;17.13;70.04
19594;BME280;9944;48.240;16.478;2022-09-13T07:54:22;99583.75;;;17.26;69.52
19594;BME280;9944;48.240;16.478;2022-09-13T07:58:25;99584.03;;;17.48;69.27
19594;BME280;9944;48.240;16.478;2022-09-13T08:02:28;99576.38;;;17.69;69.32
19594;BME280;9944;48.240;16.478;2022-09-13T08:06:34;99568.81;;;17.86;68.72
19594;BME280;9944;48.240;16.478;2022-09-13T08:10:38;99561.19;;;18.04;68.48
19594;BME280;9944;48.240;16.478;2022-09-13T08:14:41;99559.81;;;18.20;67.95
19594;BME280;9944;48.240;16.478;2022-09-13T08:18:45;99564.69;;;18.34;67.78
19594;BME280;9944;48.240;16.478;2022-09-13T08:22:50;99575.91;;;18.46;67.01
19594;BME280;9944;48.240;16.478;2022-09-13T08:26:54;99592.41;;;18.57;66.54
19594;BME280;9944;48.240;16.478;2022-09-13T08:31:03;99581.34;;;18.69;66.50
19594;BME280;9944;48.240;16.478;2022-09-13T08:35:07;99587.97;;;18.86;66.44
19594;BME280;9944;48.240;16.478;2022-09-13T08:39:12;99569.81;;;18.97;66.15
19594;BME280;9944;48.240;16.478;2022-09-13T08:43:22;99575.50;;;19.13;66.13
19594;BME280;9944;48.240;16.478;2022-09-13T08:47:36;99580.47;;;19.24;65.07
19594;BME280;9944;48.240;16.478;2022-09-13T08:51:45;99579.94;;;19.39;64.58
19594;BME280;9944;48.240;16.478;2022-09-13T08:55:57;99565.41;;;19.48;63.58
19594;BME280;9944;48.240;16.478;2022-09-13T09:00:11;99551.75;;;19.55;62.70
19594;BME280;9944;48.240;16.478;2022-09-13T09:04:33;99554.91;;;19.67;61.95
19594;BME280;9944;48.240;16.478;2022-09-13T09:08:42;99564.50;;;19.72;61.78
19594;BME280;9944;48.240;16.478;2022-09-13T09:12:53;99559.59;;;19.85;61.88
19594;BME280;9944;48.240;16.478;2022-09-13T09:17:00;99552.97;;;19.96;61.20
19594;BME280;9944;48.240;16.478;2022-09-13T09:21:11;99548.97;;;20.07;60.85
19594;BME280;9944;48.240;16.478;2022-09-13T09:25:17;99556.56;;;20.18;61.22
19594;BME280;9944;48.240;16.478;2022-09-13T09:29:25;99552.38;;;20.35;60.91
19594;BME280;9944;48.240;16.478;2022-09-13T09:33:47;99539.38;;;20.47;58.83
19594;BME280;9944;48.240;16.478;2022-09-13T09:38:07;99526.63;;;20.54;59.24
19594;BME280;9944;48.240;16.478;2022-09-13T09:42:17;99534.06;;;20.69;59.05
19594;BME280;9944;48.240;16.478;2022-09-13T09:46:27;99536.34;;;20.79;59.21
19594;BME280;9944;48.240;16.478;2022-09-13T09:50:35;99525.31;;;20.86;58.67
19594;BME280;9944;48.240;16.478;2022-09-13T09:54:40;99511.75;;;20.91;57.87
19594;BME280;9944;48.240;16.478;2022-09-13T09:58:44;99509.56;;;21.01;58.45
19594;BME280;9944;48.240;16.478;2022-09-13T10:02:52;99489.94;;;21.21;58.64
19594;BME280;9944;48.240;16.478;2022-09-13T10:07:23;99495.63;;;21.34;57.50
19594;BME280;9944;48.240;16.478;2022-09-13T10:11:38;99485.66;;;21.37;57.18
19594;BME280;9944;48.240;16.478;2022-09-13T10:15:52;99485.13;;;21.50;56.55
19594;BME280;9944;48.240;16.478;2022-09-13T10:19:58;99473.31;;;21.54;56.69
19594;BME280;9944;48.240;16.478;2022-09-13T10:24:15;99470.97;;;21.67;56.44
19594;BME280;9944;48.240;16.478;2022-09-13T10:28:20;99475.81;;;21.77;56.36
19594;BME280;9944;48.240;16.478;2022-09-13T10:32:24;99469.66;;;21.94;56.21
19594;BME280;9944;48.240;16.478;2022-09-13T10:36:30;99475.34;;;22.06;55.82
19594;BME280;9944;48.240;16.478;2022-09-13T10:40:53;99471.22;;;22.17;55.85
19594;BME280;9944;48.240;16.478;2022-09-13T10:44:59;99478.75;;;22.28;55.87
19594;BME280;9944;48.240;16.478;2022-09-13T10:49:03;99488.94;;;22.39;55.12
19594;BME280;9944;48.240;16.478;2022-09-13T10:53:29;99481.31;;;22.49;54.79
19594;BME280;9944;48.240;16.478;2022-09-13T10:57:35;99471.66;;;22.64;54.30
19594;BME280;9944;48.240;16.478;2022-09-13T11:01:43;99474.09;;;22.68;54.07
19594;BME280;9944;48.240;16.478;2022-09-13T11:05:54;99457.34;;;22.81;54.27
19594;BME280;9944;48.240;16.478;2022-09-13T11:10:08;99453.25;;;22.91;53.65
19594;BME280;9944;48.240;16.478;2022-09-13T11:14:31;99457.13;;;23.03;53.13
19594;BME280;9944;48.240;16.478;2022-09-13T11:19:01;99461.56;;;23.21;52.88
19594;BME280;9944;48.240;16.478;2022-09-13T11:23:27;99451.09;;;23.33;52.06
19594;BME280;9944;48.240;16.478;2022-09-13T11:27:41;99439.34;;;23.35;51.14
19594;BME280;9944;48.240;16.478;2022-09-13T11:31:56;99437.97;;;23.44;51.64
19594;BME280;9944;48.240;16.478;2022-09-13T11:36:14;99431.31;;;23.51;51.12
19594;BME280;9944;48.240;16.478;2022-09-13T11:40:28;99424.63;;;23.58;51.23
19594;BME280;9944;48.240;16.478;2022-09-13T11:44:57;99418.03;;;23.64;50.08
19594;BME280;9944;48.240;16.478;2022-09-13T11:49:27;99418.81;;;23.66;49.83
19594;BME280;9944;48.240;16.478;2022-09-13T11:53:51;99413.97;;;23.73;49.77
19594;BME280;9944;48.240;16.478;2022-09-13T11:58:00;99418.69;;;23.85;50.05
19594;BME280;9944;48.240;16.478;2022-09-13T12:02:15;99409.22;;;23.94;50.14
19594;BME280;9944;48.240;16.478;2022-09-13T12:06:23;99418.59;;;24.02;50.11
19594;BME280;9944;48.240;16.478;2022-09-13T12:10:31;99414.09;;;24.03;49.46
19594;BME280;9944;48.240;16.478;2022-09-13T12:14:42;99400.38;;;24.08;49.34
19594;BME280;9944;48.240;16.478;2022-09-13T12:18:50;99392.06;;;24.12;48.97
19594;BME280;9944;48.240;16.478;2022-09-13T12:22:57;99374.00;;;24.14;48.21
19594;BME280;9944;48.240;16.478;2022-09-13T12:27:03;99362.75;;;24.08;47.55
19594;BME280;9944;48.240;16.478;2022-09-13T12:31:11;99348.69;;;24.02;48.52
19594;BME280;9944;48.240;16.478;2022-09-13T12:35:23;99352.66;;;24.11;49.00
19594;BME280;9944;48.240;16.478;2022-09-13T12:39:52;99340.72;;;24.17;48.82
19594;BME280;9944;48.240;16.478;2022-09-13T12:44:14;99330.81;;;24.17;48.34
19594;BME280;9944;48.240;16.478;2022-09-13T12:48:35;99336.19;;;24.17;48.91
19594;BME280;9944;48.240;16.478;2022-09-13T12:52:52;99321.50;;;24.23;49.06
19594;BME280;9944;48.240;16.478;2022-09-13T12:57:16;99317.31;;;24.33;48.46
19594;BME280;9944;48.240;16.478;2022-09-13T13:01:28;99320.50;;;24.40;48.51
19594;BME280;9944;48.240;16.478;2022-09-13T13:05:35;99327.50;;;24.42;48.40
19594;BME280;9944;48.240;16.478;2022-09-13T13:09:42;99329.25;;;24.43;48.09
19594;BME280;9944;48.240;16.478;2022-09-13T13:13:54;99324.38;;;24.50;48.36
19594;BME280;9944;48.240;16.478;2022-09-13T13:18:21;99319.84;;;24.51;47.66
19594;BME280;9944;48.240;16.478;2022-09-13T13:22:50;99321.66;;;24.50;46.14
19594;BME280;9944;48.240;16.478;2022-09-13T13:26:56;99315.22;;;24.53;46.39
19594;BME280;9944;48.240;16.478;2022-09-13T13:31:00;99318.81;;;24.53;46.56
19594;BME280;9944;48.240;16.478;2022-09-13T13:35:24;99309.50;;;24.59;47.42
19594;BME280;9944;48.240;16.478;2022-09-13T13:39:38;99305.59;;;24.79;47.46
19594;BME280;9944;48.240;16.478;2022-09-13T13:43:44;99298.78;;;24.88;46.80
19594;BME280;9944;48.240;16.478;2022-09-13T13:48:05;99285.88;;;24.93;45.94
19594;BME280;9944;48.240;16.478;2022-09-13T13:52:35;99266.25;;;24.91;44.83
19594;BME280;9944;48.240;16.478;2022-09-13T13:56:46;99259.16;;;24.90;45.39
19594;BME280;9944;48.240;16.478;2022-09-13T14:00:53;99257.72;;;24.98;46.31
19594;BME280;9944;48.240;16.478;2022-09-13T14:05:07;99267.50;;;24.99;46.56
19594;BME280;9944;48.240;16.478;2022-09-13T14:09:24;99263.28;;;24.95;46.30
19594;BME280;9944;48.240;16.478;2022-09-13T14:13:42;99271.25;;;24.97;46.19
19594;BME280;9944;48.240;16.478;2022-09-13T14:22:17;99254.50;;;25.06;46.32
19594;BME280;9944;48.240;16.478;2022-09-13T14:26:20;99247.50;;;25.04;44.69
19594;BME280;9944;48.240;16.478;2022-09-13T14:30:26;99247.03;;;24.97;46.38
19594;BME280;9944;48.240;16.478;2022-09-13T14:34:35;99253.38;;;24.96;46.08
19594;BME280;9944;48.240;16.478;2022-09-13T14:38:47;99246.47;;;24.92;46.94
19594;BME280;9944;48.240;16.478;2022-09-13T14:42:56;99236.97;;;24.86;46.98
19594;BME280;9944;48.240;16.478;2022-09-13T14:47:03;99238.19;;;24.80;46.53
19594;BME280;9944;48.240;16.478;2022-09-13T14:51:16;99236.47;;;24.79;47.21
19594;BME280;9944;48.240;16.478;2022-09-13T14:55:25;99228.50;;;24.78;47.18
19594;BME280;9944;48.240;16.478;2022-09-13T14:59:32;99218.59;;;24.78;47.16
19594;BME280;9944;48.240;16.478;2022-09-13T15:03:40;99220.63;;;24.75;48.00
19594;BME280;9944;48.240;16.478;2022-09-13T15:07:50;99224.56;;;24.69;48.36
19594;BME280;9944;48.240;16.478;2022-09-13T15:11:58;99223.03;;;24.65;49.18
19594;BME280;9944;48.240;16.478;2022-09-13T15:16:24;99210.81;;;24.59;48.35
19594;BME280;9944;48.240;16.478;2022-09-13T15:20:30;99209.28;;;24.55;48.12
19594;BME280;9944;48.240;16.478;2022-09-13T15:24:49;99215.09;;;24.48;47.72
19594;BME280;9944;48.240;16.478;2022-09-13T15:28:54;99213.59;;;24.43;47.61
19594;BME280;9944;48.240;16.478;2022-09-13T15:33:12;99208.38;;;24.40;47.21
19594;BME280;9944;48.240;16.478;2022-09-13T15:37:28;99203.22;;;24.37;47.93
19594;BME280;9944;48.240;16.478;2022-09-13T15:41:34;99206.28;;;24.31;48.24
19594;BME280;9944;48.240;16.478;2022-09-13T15:45:38;99208.47;;;24.24;48.62
19594;BME280;9944;48.240;16.478;2022-09-13T15:49:46;99203.50;;;24.18;49.04
19594;BME280;9944;48.240;16.478;2022-09-13T15:53:50;99202.69;;;24.16;49.13
19594;BME280;9944;48.240;16.478;2022-09-13T15:57:55;99197.63;;;24.12;48.20
19594;BME280;9944;48.240;16.478;2022-09-13T16:01:59;99199.72;;;24.06;48.13
19594;BME280;9944;48.240;16.478;2022-09-13T16:06:03;99205.47;;;24.00;48.39
19594;BME280;9944;48.240;16.478;2022-09-13T16:10:13;99207.56;;;23.95;48.17
19594;BME280;9944;48.240;16.478;2022-09-13T16:14:19;99200.66;;;23.91;48.17
19594;BME280;9944;48.240;16.478;2022-09-13T16:18:23;99198.91;;;23.90;48.30
19594;BME280;9944;48.240;16.478;2022-09-13T16:22:26;99191.72;;;23.91;48.83
19594;BME280;9944;48.240;16.478;2022-09-13T16:26:30;99187.41;;;23.88;49.58
19594;BME280;9944;48.240;16.478;2022-09-13T16:30:36;99196.44;;;23.87;49.49
19594;BME280;9944;48.240;16.478;2022-09-13T16:34:39;99190.16;;;23.86;49.97
19594;BME280;9944;48.240;16.478;2022-09-13T16:38:42;99194.69;;;23.86;49.97
19594;BME280;9944;48.240;16.478;2022-09-13T16:42:46;99190.47;;;23.82;50.37
19594;BME280;9944;48.240;16.478;2022-09-13T16:46:50;99180.81;;;23.78;49.96
19594;BME280;9944;48.240;16.478;2022-09-13T16:50:53;99184.56;;;23.75;50.06
19594;BME280;9944;48.240;16.478;2022-09-13T16:55:03;99187.50;;;23.71;49.21
19594;BME280;9944;48.240;16.478;2022-09-13T16:59:09;99179.63;;;23.67;48.90
19594;BME280;9944;48.240;16.478;2022-09-13T17:03:20;99182.53;;;23.64;48.76
19594;BME280;9944;48.240;16.478;2022-09-13T17:07:23;99180.88;;;23.62;48.30
19594;BME280;9944;48.240;16.478;2022-09-13T17:11:28;99173.97;;;23.58;48.09
19594;BME280;9944;48.240;16.478;2022-09-13T17:15:37;99177.59;;;23.57;48.09
19594;BME280;9944;48.240;16.478;2022-09-13T17:19:42;99172.38;;;23.54;48.05
19594;BME280;9944;48.240;16.478;2022-09-13T17:23:46;99168.34;;;23.46;48.30
19594;BME280;9944;48.240;16.478;2022-09-13T17:27:49;99171.31;;;23.42;48.50
19594;BME280;9944;48.240;16.478;2022-09-13T17:31:52;99168.03;;;23.37;48.19
19594;BME280;9944;48.240;16.478;2022-09-13T17:36:01;99158.50;;;23.31;48.36
19594;BME280;9944;48.240;16.478;2022-09-13T17:40:05;99161.47;;;23.26;48.89
19594;BME280;9944;48.240;16.478;2022-09-13T17:44:08;99158.97;;;23.23;49.21
19594;BME280;9944;48.240;16.478;2022-09-13T17:48:12;99161.81;;;23.20;49.46
19594;BME280;9944;48.240;16.478;2022-09-13T17:52:17;99150.38;;;23.17;49.29
19594;BME280;9944;48.240;16.478;2022-09-13T17:56:21;99154.31;;;23.11;49.46
19594;BME280;9944;48.240;16.478;2022-09-13T18:00:26;99154.56;;;23.06;49.79
19594;BME280;9944;48.240;16.478;2022-09-13T18:04:31;99158.19;;;23.05;49.92
19594;BME280;9944;48.240;16.478;2022-09-13T18:08:36;99164.56;;;23.03;50.30
19594;BME280;9944;48.240;16.478;2022-09-13T18:12:40;99165.50;;;23.02;50.48
19594;BME280;9944;48.240;16.478;2022-09-13T18:16:43;99159.19;;;23.03;50.92
19594;BME280;9944;48.240;16.478;2022-09-13T18:20:46;99155.56;;;23.04;51.11
19594;BME280;9944;48.240;16.478;2022-09-13T18:24:51;99153.22;;;22.98;50.98
19594;BME280;9944;48.240;16.478;2022-09-13T18:28:55;99161.44;;;22.94;51.31
19594;BME280;9944;48.240;16.478;2022-09-13T18:32:58;99160.69;;;22.92;50.93
19594;BME280;9944;48.240;16.478;2022-09-13T18:37:01;99162.59;;;22.90;51.27
19594;BME280;9944;48.240;16.478;2022-09-13T18:41:07;99163.53;;;22.89;51.31
19594;BME280;9944;48.240;16.478;2022-09-13T18:45:11;99162.75;;;22.87;51.49
19594;BME280;9944;48.240;16.478;2022-09-13T18:49:17;99162.69;;;22.89;52.40
19594;BME280;9944;48.240;16.478;2022-09-13T18:53:20;99170.81;;;22.87;52.04
19594;BME280;9944;48.240;16.478;2022-09-13T18:57:36;99165.44;;;22.87;52.52
19594;BME280;9944;48.240;16.478;2022-09-13T19:01:41;99154.88;;;22.84;52.25
19594;BME280;9944;48.240;16.478;2022-09-13T19:05:44;99157.75;;;22.81;52.53
19594;BME280;9944;48.240;16.478;2022-09-13T19:09:49;99157.16;;;22.76;53.15
19594;BME280;9944;48.240;16.478;2022-09-13T19:13:54;99152.81;;;22.73;53.12
19594;BME280;9944;48.240;16.478;2022-09-13T19:17:58;99161.97;;;22.69;53.20
19594;BME280;9944;48.240;16.478;2022-09-13T19:22:01;99169.41;;;22.64;53.29
19594;BME280;9944;48.240;16.478;2022-09-13T19:26:06;99167.16;;;22.56;53.85
19594;BME280;9944;48.240;16.478;2022-09-13T19:30:11;99162.22;;;22.49;53.81
19594;BME280;9944;48.240;16.478;2022-09-13T19:34:16;99159.25;;;22.37;54.12
19594;BME280;9944;48.240;16.478;2022-09-13T19:38:19;99147.31;;;22.27;54.13
19594;BME280;9944;48.240;16.478;2022-09-13T19:42:23;99154.78;;;22.21;54.84
19594;BME280;9944;48.240;16.478;2022-09-13T19:46:30;99148.81;;;22.15;55.18
19594;BME280;9944;48.240;16.478;2022-09-13T19:50:36;99145.59;;;22.09;55.38
19594;BME280;9944;48.240;16.478;2022-09-13T19:54:39;99146.94;;;22.00;55.87
19594;BME280;9944;48.240;16.478;2022-09-13T19:58:43;99136.72;;;21.91;55.80
19594;BME280;9944;48.240;16.478;2022-09-13T20:02:48;99138.78;;;21.86;56.09
19594;BME280;9944;48.240;16.478;2022-09-13T20:06:51;99132.97;;;21.77;56.57
19594;BME280;9944;48.240;16.478;2022-09-13T20:10:54;99134.16;;;21.72;56.66
19594;BME280;9944;48.240;16.478;2022-09-13T20:14:57;99142.50;;;21.66;57.10
19594;BME280;9944;48.240;16.478;2022-09-13T20:19:04;99122.25;;;21.60;57.39
19594;BME280;9944;48.240;16.478;2022-09-13T20:23:27;99122.72;;;21.51;57.42
19594;BME280;9944;48.240;16.478;2022-09-13T20:27:31;99128.53;;;21.41;57.92
19594;BME280;9944;48.240;16.478;2022-09-13T20:31:35;99124.34;;;21.36;57.95
19594;BME280;9944;48.240;16.478;2022-09-13T20:35:40;99124.50;;;21.33;58.25
19594;BME280;9944;48.240;16.478;2022-09-13T20:39:44;99114.97;;;21.27;58.37
19594;BME280;9944;48.240;16.478;2022-09-13T20:43:48;99120.63;;;21.21;58.39
19594;BME280;9944;48.240;16.478;2022-09-13T20:47:51;99122.66;;;21.16;58.60
19594;BME280;9944;48.240;16.478;2022-09-13T20:51:56;99110.41;;;21.12;58.98
19594;BME280;9944;48.240;16.478;2022-09-13T20:56:01;99108.81;;;21.08;59.05
19594;BME280;9944;48.240;16.478;2022-09-13T21:00:06;99108.97;;;21.04;58.91
19594;BME280;9944;48.240;16.478;2022-09-13T21:04:10;99110.88;;;21.02;59.53
19594;BME280;9944;48.240;16.478;2022-09-13T21:08:15;99103.84;;;21.00;59.67
19594;BME280;9944;48.240;16.478;2022-09-13T21:12:36;99111.09;;;20.98;59.71
19594;BME280;9944;48.240;16.478;2022-09-13T21:16:39;99105.94;;;20.93;60.12
19594;BME280;9944;48.240;16.478;2022-09-13T21:20:42;99108.69;;;20.92;60.13
19594;BME280;9944;48.240;16.478;2022-09-13T21:24:47;99111.47;;;20.90;60.69
19594;BME280;9944;48.240;16.478;2022-09-13T21:28:50;99111.63;;;20.87;60.71
19594;BME280;9944;48.240;16.478;2022-09-13T21:32:54;99109.22;;;20.81;61.03
19594;BME280;9944;48.240;16.478;2022-09-13T21:36:57;99105.97;;;20.74;61.25
19594;BME280;9944;48.240;16.478;2022-09-13T21:41:03;99103.00;;;20.61;61.28
19594;BME280;9944;48.240;16.478;2022-09-13T21:45:08;99105.13;;;20.55;61.99
19594;BME280;9944;48.240;16.478;2022-09-13T21:49:11;99105.25;;;20.51;62.72
19594;BME280;9944;48.240;16.478;2022-09-13T21:53:15;99103.59;;;20.49;62.89
19594;BME280;9944;48.240;16.478;2022-09-13T21:57:20;99094.94;;;20.44;62.95
19594;BME280;9944;48.240;16.478;2022-09-13T22:01:24;99092.41;;;20.41;63.17
19594;BME280;9944;48.240;16.478;2022-09-13T22:05:28;99084.69;;;20.35;63.64